Anguilla, MS

2:36 PM CST on March 04, 2015 (GMT -0600)
Mid Delta Regional | Change Station
CLOSE
Current Station
Airport
Location: Greenville,
Elevation: 131 ft
Nearby Weather Stations
Active Advisory: Winter Storm Warning

Elev 131 ft 33.48 °N, 90.99 °W | Updated 43 minutes ago

Mostly Cloudy
Mostly Cloudy
48 °F
Feels Like 48 °F
N
24
Wind Variable Wind from North
Gusts 29 mph

Today
High -- | Low -- °F
--% Chance of Precip.
Yesterday
High -- | Low -- °F
Precip. -- in
6:27 AM 6:02 PM
Waxing Gibbous, 99% visible
Pressure 29.91 in
Visibility 10.0 miles
Clouds Overcast 700 ft
Dew Point 45 °F
Humidity 89%
Rainfall 0.12 in
Snow Depth Not available.
UV 2 out of 12
Pollen 8.90 out of 12
Air Quality Not available.
Flu Activity Not available.
METAR KGLH 041953Z AUTO 35021G25KT 10SM OVC007 09/07 A2989 RMK AO2 PK WND 01028/1855 WSHFT 1850 RAB14E45 SLP128 P0001 T00890072 $

More Conditions Fewer Conditions

Pressure 29.91 in
Visibility 10.0 miles
Clouds Overcast 700 ft
Dew Point 45 °F
Humidity 89%
Rainfall 0.12 in
Snow Depth Not available.
UV 2 out of 12
Pollen 8.90 out of 12
Air Quality Not available.
Flu Activity Not available.
METAR KGLH 041953Z AUTO 35021G25KT 10SM OVC007 09/07 A2989 RMK AO2 PK WND 01028/1855 WSHFT 1850 RAB14E45 SLP128 P0001 T00890072 $

More Conditions Fewer Conditions

10-Day Weather Forecast

Almanac

Astronomy

Mar. 04, 2015 Rise Set
Actual Time
Civil Twilight
Nautical Twilight
Astronomical Twilight
Moon
Length of Visible Light
Length of Day
Tomorrow will be .
, % of the Moon is Illuminated

Today's Extremes

State Highs State Lows

Community

WunderPhotos

Upload Photos

1,802,575 photos uploaded!

WunderBlogs® & News

Nearby

Air Quality

  Air Quality AQ Index Pollutant
Not available.

Snow Depth

Station Depth Elevation

Earthquake Activity

City Distance Mag. Time & Date
Minimum magnitude displayed is 2.5.

Coastal Water Temperatures

Place Temperature

Nearby Weather Stations

Winter Storm Warning
Statement as of 11:29 AM CST on March 04, 2015

... Winter Storm Warning remains in effect from 6 PM this evening
to noon CST Thursday...

A Winter Storm Warning remains in effect from 6 PM this evening
to noon CST Thursday.

* Timing: beginning after sunset and continuing through Thursday
morning.

* Accumulation: around one quarter inch of ice accumulation with
additional accumulation of sleet or snow up to one inch.

* Impacts: hazardous travel conditions are likely with power
outages possible.

Precautionary/preparedness actions...

A Winter Storm Warning means significant amounts of snow...
sleet... and ice are expected or occurring. Strong winds are also
possible. This will make travel very hazardous or impossible.